createdAt,value
2022-07-28T00:00:24.809Z,1.50
2022-07-28T00:01:27.869Z,1.00
2022-07-28T00:02:31.216Z,1.50
2022-07-28T00:03:34.397Z,1.00
2022-07-28T00:04:37.479Z,1.00
2022-07-28T00:05:40.753Z,1.00
2022-07-28T00:06:43.624Z,0.00
2022-07-28T00:07:46.704Z,0.00
2022-07-28T00:08:49.789Z,0.00
2022-07-28T00:09:55.626Z,1.00
2022-07-28T00:10:56.965Z,1.00
2022-07-28T00:12:00.046Z,0.25
2022-07-28T00:13:03.227Z,0.50
2022-07-28T00:14:07.433Z,0.25
2022-07-28T00:15:10.409Z,0.75
2022-07-28T00:16:13.606Z,1.00
2022-07-28T00:17:16.779Z,1.00
2022-07-28T00:18:19.850Z,0.50
2022-07-28T00:19:22.891Z,0.00
2022-07-28T00:20:26.011Z,0.00
2022-07-28T00:21:28.989Z,0.00
2022-07-28T00:22:31.967Z,0.50
2022-07-28T00:23:39.086Z,0.50
2022-07-28T00:24:39.250Z,0.50
2022-07-28T00:25:42.281Z,1.00
2022-07-28T00:26:46.754Z,1.00
2022-07-28T00:27:49.510Z,1.00
2022-07-28T00:28:52.833Z,1.00
2022-07-28T00:29:55.881Z,0.00
2022-07-28T00:30:59.124Z,0.50
2022-07-28T00:32:03.440Z,0.50
2022-07-28T00:33:06.655Z,0.50
2022-07-28T00:34:09.869Z,0.00
2022-07-28T00:35:12.910Z,0.00
2022-07-28T00:36:17.329Z,0.50
2022-07-28T00:37:20.760Z,0.25
2022-07-28T00:38:23.889Z,0.00
2022-07-28T00:39:26.864Z,0.00
2022-07-28T00:40:30.149Z,0.00
2022-07-28T00:41:33.127Z,0.75
2022-07-28T00:42:36.324Z,0.40
2022-07-28T00:43:39.603Z,0.00
2022-07-28T00:44:42.790Z,0.25
2022-07-28T00:45:46.064Z,0.50
2022-07-28T00:46:49.282Z,0.00
2022-07-28T00:47:52.327Z,0.00
2022-07-28T00:48:55.752Z,0.00
2022-07-28T00:49:58.897Z,0.00
2022-07-28T00:51:02.089Z,0.50
2022-07-28T00:52:05.356Z,0.25
2022-07-28T00:53:08.810Z,0.50
2022-07-28T00:54:12.246Z,1.00
2022-07-28T00:55:15.480Z,0.25
2022-07-28T00:56:18.488Z,0.00
2022-07-28T00:57:21.470Z,0.00
2022-07-28T00:58:24.660Z,0.00
2022-07-28T00:59:27.759Z,0.50
2022-07-28T01:00:30.820Z,1.00
2022-07-28T01:01:34.038Z,1.00
2022-07-28T01:02:37.323Z,0.00
2022-07-28T01:03:43.662Z,0.00
2022-07-28T01:04:47.016Z,0.00
2022-07-28T01:05:50.212Z,0.00
2022-07-28T01:06:53.593Z,0.00
2022-07-28T01:07:56.882Z,0.00
2022-07-28T01:09:00.271Z,0.00
2022-07-28T01:10:03.641Z,0.00
2022-07-28T01:11:07.142Z,0.00
2022-07-28T01:12:10.623Z,0.00
2022-07-28T01:13:14.013Z,0.00
2022-07-28T01:14:17.575Z,0.00
2022-07-28T01:15:21.219Z,0.00
2022-07-28T01:16:24.543Z,0.00
2022-07-28T01:17:27.563Z,0.50
2022-07-28T01:18:30.740Z,0.00
2022-07-28T01:19:33.683Z,0.00
2022-07-28T01:20:36.808Z,0.00
2022-07-28T01:21:39.871Z,0.00
2022-07-28T01:24:00.887Z,0.00
2022-07-28T01:25:04.279Z,0.00
2022-07-28T01:26:07.762Z,0.00
2022-07-28T01:27:11.139Z,0.00
2022-07-28T01:28:14.434Z,0.00
2022-07-28T01:29:17.713Z,0.00
2022-07-28T01:30:21.029Z,0.00
2022-07-28T01:31:25.238Z,0.00
2022-07-28T01:32:28.494Z,1.00
2022-07-28T01:33:31.669Z,1.00
2022-07-28T01:34:34.763Z,0.00
2022-07-28T01:35:37.941Z,0.00
2022-07-28T01:36:41.218Z,0.00
2022-07-28T01:37:44.399Z,0.00
2022-07-28T01:38:47.894Z,0.50
2022-07-28T01:39:51.380Z,0.00
2022-07-28T01:40:54.768Z,0.00
2022-07-28T01:41:58.113Z,0.00
2022-07-28T01:43:01.438Z,0.00
2022-07-28T01:44:04.691Z,0.00
2022-07-28T01:45:07.989Z,0.25
2022-07-28T01:46:11.374Z,0.50
2022-07-28T01:47:14.873Z,0.00
2022-07-28T01:48:18.100Z,0.00
2022-07-28T01:49:21.229Z,0.00
2022-07-28T01:50:24.628Z,0.00
2022-07-28T01:51:27.599Z,0.00
2022-07-28T01:52:31.164Z,0.00
2022-07-28T01:53:37.677Z,0.00
2022-07-28T01:54:38.588Z,0.00
2022-07-28T01:55:41.768Z,0.50
2022-07-28T01:56:44.851Z,1.00
2022-07-28T01:57:48.033Z,0.50
2022-07-28T01:58:51.287Z,0.00
2022-07-28T01:59:54.404Z,0.00
2022-07-28T02:00:57.470Z,0.00
2022-07-28T02:02:00.728Z,0.00
2022-07-28T02:03:03.859Z,0.00
2022-07-28T02:04:06.768Z,0.00
2022-07-28T02:05:09.716Z,0.00
2022-07-28T02:06:13.211Z,0.00
2022-07-28T02:07:16.249Z,0.00
2022-07-28T02:08:19.446Z,0.50
2022-07-28T02:09:22.510Z,0.25
2022-07-28T02:10:25.758Z,0.00
2022-07-28T02:11:28.948Z,0.00
2022-07-28T02:12:32.052Z,0.00
2022-07-28T02:13:34.993Z,0.50
2022-07-28T02:14:38.006Z,0.50
2022-07-28T02:15:41.123Z,0.00
2022-07-28T02:16:46.217Z,0.25
2022-07-28T02:17:49.501Z,0.00
2022-07-28T02:18:52.989Z,0.00
2022-07-28T02:19:56.065Z,0.00
2022-07-28T02:20:59.252Z,0.75
2022-07-28T02:22:02.607Z,1.00
2022-07-28T02:23:05.727Z,0.00
2022-07-28T02:24:08.804Z,0.00
2022-07-28T02:25:11.902Z,0.00
2022-07-28T02:26:14.968Z,0.00
2022-07-28T02:27:19.171Z,0.00
2022-07-28T02:28:22.354Z,1.00
2022-07-28T02:29:49.128Z,1.00
2022-07-28T02:30:29.824Z,0.00
2022-07-28T02:31:32.969Z,0.00
2022-07-28T02:32:36.000Z,0.00
2022-07-28T02:33:59.526Z,0.00
2022-07-28T02:34:44.164Z,0.50
2022-07-28T02:35:48.959Z,0.25
2022-07-28T02:36:51.499Z,0.00
2022-07-28T02:37:54.569Z,0.00
2022-07-28T02:38:57.764Z,0.00
2022-07-28T02:40:01.002Z,0.00
2022-07-28T02:41:04.018Z,0.00
2022-07-28T02:42:07.098Z,0.00
2022-07-28T02:43:10.162Z,0.00
2022-07-28T02:44:13.592Z,0.00
2022-07-28T02:45:16.858Z,0.00
2022-07-28T02:46:19.986Z,0.00
2022-07-28T02:47:23.044Z,0.00
2022-07-28T02:48:25.930Z,0.00
2022-07-28T02:49:30.084Z,0.00
2022-07-28T02:50:33.368Z,0.00
2022-07-28T02:51:36.451Z,0.00
2022-07-28T02:52:39.622Z,0.00
2022-07-28T02:53:42.804Z,1.00
2022-07-28T02:54:45.779Z,1.00
2022-07-28T02:55:48.972Z,0.00
2022-07-28T02:56:53.101Z,0.00
2022-07-28T02:57:56.907Z,0.00
2022-07-28T02:59:00.248Z,0.50
2022-07-28T03:00:03.544Z,0.00
2022-07-28T03:01:06.771Z,0.00
2022-07-28T03:02:09.803Z,1.00
2022-07-28T03:03:13.080Z,1.00
2022-07-28T03:04:16.814Z,0.00
2022-07-28T03:05:20.528Z,0.00
2022-07-28T03:06:28.478Z,0.00
2022-07-28T03:07:27.922Z,0.50
2022-07-28T03:08:31.340Z,0.50
2022-07-28T03:09:34.522Z,0.50
2022-07-28T03:10:37.623Z,0.00
2022-07-28T03:11:40.790Z,0.00
2022-07-28T03:12:43.969Z,0.50
2022-07-28T03:13:47.254Z,0.50
2022-07-28T03:14:50.542Z,0.00
2022-07-28T03:15:53.627Z,0.00
2022-07-28T03:16:56.952Z,0.00
2022-07-28T03:17:59.976Z,0.00
2022-07-28T03:19:03.267Z,0.00
2022-07-28T03:20:06.431Z,0.00
2022-07-28T03:21:10.039Z,0.00
2022-07-28T03:22:13.524Z,0.00
2022-07-28T03:23:16.814Z,0.00
2022-07-28T03:24:20.199Z,0.25
2022-07-28T03:25:23.191Z,0.00
2022-07-28T03:26:26.462Z,0.00
2022-07-28T03:27:29.534Z,0.00
2022-07-28T03:28:32.824Z,0.00
2022-07-28T03:29:36.099Z,0.00
2022-07-28T03:30:39.437Z,0.00
2022-07-28T03:31:42.567Z,0.00
2022-07-28T03:32:45.609Z,0.00
2022-07-28T03:33:48.735Z,0.00
2022-07-28T03:34:51.818Z,0.00
2022-07-28T03:35:54.895Z,0.00
2022-07-28T03:36:58.083Z,0.00
2022-07-28T03:38:01.166Z,0.00
2022-07-28T03:39:04.339Z,0.00
2022-07-28T03:40:07.397Z,0.00
2022-07-28T03:41:10.495Z,0.00
2022-07-28T03:42:13.691Z,0.00
2022-07-28T03:43:16.959Z,0.00
2022-07-28T03:44:27.693Z,0.00
2022-07-28T03:45:24.145Z,0.00
2022-07-28T03:46:30.439Z,0.00
2022-07-28T03:47:33.547Z,0.00
2022-07-28T03:48:36.608Z,0.50
2022-07-28T03:49:39.730Z,0.25
2022-07-28T03:50:42.918Z,0.00
2022-07-28T03:51:46.095Z,0.00
2022-07-28T03:52:49.388Z,0.00
2022-07-28T03:53:52.477Z,0.00
2022-07-28T03:54:55.844Z,0.00
2022-07-28T03:55:59.112Z,0.00
2022-07-28T03:57:02.428Z,0.50
2022-07-28T03:58:05.695Z,0.25
2022-07-28T03:59:08.884Z,0.00
2022-07-28T04:00:12.178Z,0.00
2022-07-28T04:01:15.604Z,0.00
2022-07-28T04:02:18.883Z,0.00
2022-07-28T04:03:37.656Z,0.00
2022-07-28T04:04:26.535Z,0.00
2022-07-28T04:05:29.709Z,0.00
2022-07-28T04:06:33.111Z,0.00
2022-07-28T04:07:36.314Z,0.00
2022-07-28T04:08:39.256Z,0.00
2022-07-28T04:09:42.542Z,0.00
2022-07-28T04:10:45.815Z,0.00
2022-07-28T04:11:49.129Z,0.00
2022-07-28T04:12:52.507Z,0.00
2022-07-28T04:13:55.788Z,0.00
2022-07-28T04:14:59.163Z,0.00
2022-07-28T04:16:02.556Z,0.00
2022-07-28T04:17:05.761Z,0.00
2022-07-28T04:18:09.081Z,0.00
2022-07-28T04:19:12.312Z,0.00
2022-07-28T04:20:15.735Z,0.00
2022-07-28T04:21:18.842Z,0.00
2022-07-28T04:22:21.948Z,0.00
2022-07-28T04:23:24.938Z,0.00
2022-07-28T04:24:28.217Z,0.00
2022-07-28T04:25:32.334Z,0.00
2022-07-28T04:26:35.398Z,0.00
2022-07-28T04:27:38.597Z,0.00
2022-07-28T04:28:41.666Z,0.00
2022-07-28T04:29:44.918Z,0.00
2022-07-28T04:30:48.494Z,0.00
2022-07-28T04:31:52.019Z,0.00
2022-07-28T04:32:55.269Z,0.00
2022-07-28T04:33:58.468Z,0.00
2022-07-28T04:35:01.791Z,0.00
2022-07-28T04:36:05.163Z,0.00
2022-07-28T04:37:08.558Z,0.00
2022-07-28T04:38:11.938Z,0.00
2022-07-28T04:39:15.433Z,0.50
2022-07-28T04:40:18.823Z,0.25
2022-07-28T04:41:21.991Z,0.00
2022-07-28T04:42:25.271Z,0.00
2022-07-28T04:43:28.162Z,0.00
2022-07-28T04:44:31.547Z,0.00
2022-07-28T04:45:34.845Z,0.00
2022-07-28T04:46:38.043Z,0.00
2022-07-28T04:47:41.080Z,0.00
2022-07-28T04:48:44.497Z,0.00
2022-07-28T04:49:47.813Z,0.00
2022-07-28T04:50:50.947Z,0.00
2022-07-28T04:51:54.128Z,0.50
2022-07-28T04:52:58.538Z,0.50
2022-07-28T04:54:01.807Z,0.00
2022-07-28T04:55:05.213Z,0.00
2022-07-28T04:56:08.445Z,0.00
2022-07-28T04:57:12.773Z,0.00
2022-07-28T04:58:15.971Z,0.00
2022-07-28T04:59:19.978Z,0.00
2022-07-28T05:00:24.185Z,0.00
2022-07-28T05:01:27.309Z,0.00
2022-07-28T05:02:30.642Z,0.00
2022-07-28T05:03:36.273Z,0.00
2022-07-28T05:04:37.877Z,0.00
2022-07-28T05:05:40.910Z,0.00
2022-07-28T05:06:44.102Z,0.00
2022-07-28T05:07:47.371Z,0.00
2022-07-28T05:08:50.773Z,0.00
2022-07-28T05:09:54.043Z,0.00
2022-07-28T05:10:57.641Z,0.00
2022-07-28T05:12:00.710Z,0.00
2022-07-28T05:13:03.807Z,0.00
2022-07-28T05:14:06.781Z,0.00
2022-07-28T05:15:10.993Z,0.00
2022-07-28T05:16:14.140Z,0.00
2022-07-28T05:17:17.254Z,0.00
2022-07-28T05:18:20.331Z,0.00
2022-07-28T05:19:23.362Z,0.00
2022-07-28T05:20:26.480Z,0.00
2022-07-28T05:21:29.456Z,0.00
2022-07-28T05:22:32.628Z,0.00
2022-07-28T05:23:35.731Z,0.00
2022-07-28T05:24:38.908Z,0.00
2022-07-28T05:25:41.883Z,0.00
2022-07-28T05:26:44.951Z,0.00
2022-07-28T05:27:48.129Z,0.00
2022-07-28T05:28:51.424Z,0.00
2022-07-28T05:29:54.802Z,0.00
2022-07-28T05:30:57.989Z,0.00
2022-07-28T05:32:04.029Z,0.00
2022-07-28T05:33:05.587Z,0.00
2022-07-28T05:34:08.959Z,0.00
2022-07-28T05:35:12.449Z,0.00
2022-07-28T05:36:15.831Z,0.00
2022-07-28T05:37:19.231Z,0.00
2022-07-28T05:38:22.722Z,0.00
2022-07-28T05:39:25.689Z,0.00
2022-07-28T05:40:28.979Z,0.00
2022-07-28T05:41:31.848Z,0.00
2022-07-28T05:42:35.363Z,1.25
2022-07-28T05:43:38.330Z,1.00
2022-07-28T05:44:41.291Z,0.00
2022-07-28T05:45:44.415Z,0.60
2022-07-28T05:46:47.863Z,0.25
2022-07-28T05:47:51.253Z,0.00
2022-07-28T05:48:54.487Z,0.00
2022-07-28T05:49:57.727Z,0.00
2022-07-28T05:51:00.928Z,1.00
2022-07-28T05:52:04.087Z,0.80
2022-07-28T05:53:07.260Z,0.00
2022-07-28T05:54:10.620Z,0.00
2022-07-28T05:55:13.748Z,0.00
2022-07-28T05:56:16.813Z,0.00
2022-07-28T05:57:20.003Z,0.00
2022-07-28T05:58:23.075Z,0.00
2022-07-28T05:59:26.658Z,0.00
2022-07-28T06:00:29.546Z,0.50
2022-07-28T06:01:32.669Z,0.50
2022-07-28T06:02:35.773Z,0.00
2022-07-28T06:03:42.373Z,0.00
2022-07-28T06:04:43.081Z,0.00
2022-07-28T06:06:09.724Z,0.00
2022-07-28T06:06:50.253Z,0.00
2022-07-28T06:07:53.332Z,0.00
2022-07-28T06:08:56.542Z,0.00
2022-07-28T06:09:59.724Z,0.00
2022-07-28T06:11:02.801Z,0.50
2022-07-28T06:12:05.770Z,1.00
2022-07-28T06:13:08.880Z,0.25
2022-07-28T06:14:12.105Z,0.25
2022-07-28T06:15:15.437Z,0.00
2022-07-28T06:16:18.683Z,0.00
2022-07-28T06:17:21.781Z,0.50
2022-07-28T06:18:24.751Z,1.00
2022-07-28T06:19:27.774Z,1.00
2022-07-28T06:20:31.022Z,1.00
2022-07-28T06:21:34.107Z,1.00
2022-07-28T06:22:37.186Z,1.00
2022-07-28T06:23:40.160Z,1.25
2022-07-28T06:24:43.229Z,1.00
2022-07-28T06:25:46.409Z,0.25
2022-07-28T06:26:49.593Z,0.00
2022-07-28T06:27:52.883Z,0.00
2022-07-28T06:28:55.882Z,0.00
2022-07-28T06:29:59.039Z,0.00
2022-07-28T06:31:02.240Z,0.00
2022-07-28T06:32:05.300Z,0.00
2022-07-28T06:33:08.395Z,0.50
2022-07-28T06:34:11.565Z,0.50
2022-07-28T06:35:15.051Z,0.50
2022-07-28T06:36:18.241Z,0.25
2022-07-28T06:37:21.409Z,0.00
2022-07-28T06:38:24.704Z,0.00
2022-07-28T06:39:27.842Z,0.00
2022-07-28T06:40:30.968Z,0.00
2022-07-28T06:41:34.019Z,0.00
2022-07-28T06:42:37.539Z,0.00
2022-07-28T06:43:40.719Z,0.00
2022-07-28T06:44:58.504Z,0.00
2022-07-28T06:45:48.108Z,0.00
2022-07-28T06:46:51.233Z,0.50
2022-07-28T06:47:54.375Z,0.50
2022-07-28T06:48:57.565Z,1.00
2022-07-28T06:50:01.152Z,1.00
2022-07-28T06:51:04.109Z,0.00
2022-07-28T06:52:07.304Z,0.50
2022-07-28T06:53:10.479Z,0.25
2022-07-28T06:54:13.958Z,0.00
2022-07-28T06:55:17.401Z,0.00
2022-07-28T06:56:21.605Z,0.00
2022-07-28T06:57:27.977Z,0.50
2022-07-28T06:58:28.731Z,0.50
2022-07-28T06:59:31.710Z,1.50
2022-07-28T07:00:34.825Z,1.50
2022-07-28T07:01:37.983Z,0.00
2022-07-28T07:02:41.050Z,0.00
2022-07-28T07:03:44.349Z,0.00
2022-07-28T07:04:47.535Z,0.00
2022-07-28T07:05:52.431Z,0.00
2022-07-28T07:06:54.907Z,0.00
2022-07-28T07:07:58.092Z,0.00
2022-07-28T07:09:01.269Z,0.00
2022-07-28T07:10:04.474Z,0.00
2022-07-28T07:11:07.629Z,0.00
2022-07-28T07:12:10.743Z,0.00
2022-07-28T07:13:13.807Z,0.25
2022-07-28T07:14:17.157Z,0.25
2022-07-28T07:15:20.360Z,0.50
2022-07-28T07:16:23.748Z,1.00
2022-07-28T07:17:26.692Z,1.00
2022-07-28T07:18:29.568Z,1.00
2022-07-28T07:19:32.477Z,1.00
2022-07-28T07:20:35.537Z,0.50
2022-07-28T07:21:38.743Z,1.00
2022-07-28T07:22:41.828Z,0.50
2022-07-28T07:23:45.037Z,1.00
2022-07-28T07:24:50.459Z,0.50
2022-07-28T07:25:53.023Z,0.00
2022-07-28T07:26:56.084Z,0.50
2022-07-28T07:27:59.477Z,1.00
2022-07-28T07:29:02.870Z,0.50
2022-07-28T07:30:06.341Z,0.00
2022-07-28T07:31:09.393Z,0.00
2022-07-28T07:32:12.839Z,0.00
2022-07-28T07:33:15.997Z,0.00
2022-07-28T07:34:19.388Z,0.00
2022-07-28T07:35:22.891Z,0.00
2022-07-28T07:36:26.148Z,0.00
2022-07-28T07:37:29.131Z,0.00
2022-07-28T07:38:32.408Z,0.50
2022-07-28T07:39:35.487Z,0.25
2022-07-28T07:40:38.539Z,0.00
2022-07-28T07:41:41.644Z,0.00
2022-07-28T07:42:44.747Z,0.00
2022-07-28T07:43:48.070Z,0.50
2022-07-28T07:44:51.415Z,0.50
2022-07-28T07:45:54.891Z,0.50
2022-07-28T07:46:58.380Z,0.50
2022-07-28T07:48:01.564Z,1.00
2022-07-28T07:49:05.007Z,0.25
2022-07-28T07:50:08.430Z,0.25
2022-07-28T07:51:15.625Z,1.00
2022-07-28T07:52:15.821Z,0.50
2022-07-28T07:53:18.909Z,0.00
2022-07-28T07:54:21.990Z,0.50
2022-07-28T07:55:24.968Z,0.50
2022-07-28T07:56:28.054Z,0.25
2022-07-28T07:57:31.119Z,0.00
2022-07-28T07:58:34.220Z,0.00
2022-07-28T07:59:37.281Z,0.00
2022-07-28T08:00:40.370Z,0.50
2022-07-28T08:01:43.559Z,0.50
2022-07-28T08:02:46.643Z,0.25
2022-07-28T08:03:50.151Z,0.50
2022-07-28T08:04:53.618Z,0.50
2022-07-28T08:05:56.763Z,0.00
2022-07-28T08:07:00.888Z,0.00
2022-07-28T08:08:04.062Z,-0.25
2022-07-28T08:09:07.041Z,0.50
2022-07-28T08:10:10.234Z,1.00
2022-07-28T08:11:13.400Z,1.00
2022-07-28T08:12:16.589Z,0.50
2022-07-28T08:13:19.576Z,0.50
2022-07-28T08:14:22.641Z,0.50
2022-07-28T08:15:25.722Z,0.50
2022-07-28T08:16:28.866Z,0.75
2022-07-28T08:17:31.987Z,0.25
2022-07-28T08:18:35.160Z,0.50
2022-07-28T08:19:38.154Z,1.00
2022-07-28T08:20:41.131Z,0.75
2022-07-28T08:21:44.824Z,0.75
2022-07-28T08:22:47.890Z,1.00
2022-07-28T08:23:51.087Z,0.25
2022-07-28T08:24:54.149Z,0.75
2022-07-28T08:25:57.132Z,1.00
2022-07-28T08:27:00.276Z,1.00
2022-07-28T08:28:03.287Z,0.50
2022-07-28T08:29:06.375Z,1.00
2022-07-28T08:30:09.349Z,0.20
2022-07-28T08:31:12.591Z,0.50
2022-07-28T08:32:15.812Z,1.00
2022-07-28T08:33:19.005Z,0.00
2022-07-28T08:34:31.660Z,0.00
2022-07-28T08:35:35.160Z,0.50
2022-07-28T08:36:30.386Z,1.00
2022-07-28T08:37:33.361Z,0.50
2022-07-28T08:38:36.439Z,0.00
2022-07-28T08:39:39.634Z,0.50
2022-07-28T08:40:42.510Z,1.50
2022-07-28T08:41:45.680Z,1.00
2022-07-28T08:42:48.647Z,0.50
2022-07-28T08:43:51.858Z,1.00
2022-07-28T08:44:55.028Z,1.00
2022-07-28T08:45:58.675Z,1.00
2022-07-28T08:47:01.902Z,1.00
2022-07-28T08:48:09.201Z,1.00
2022-07-28T08:49:08.840Z,1.00
2022-07-28T08:50:12.019Z,1.50
2022-07-28T08:51:15.350Z,0.00
2022-07-28T08:52:18.718Z,0.50
2022-07-28T08:53:24.845Z,1.00
2022-07-28T08:54:27.755Z,1.00
2022-07-28T08:55:31.481Z,0.75
2022-07-28T08:56:34.930Z,0.25
2022-07-28T08:57:38.029Z,0.50
2022-07-28T08:58:40.990Z,0.50
2022-07-28T08:59:44.074Z,0.50
2022-07-28T09:00:47.160Z,0.50
2022-07-28T09:01:55.480Z,0.25
2022-07-28T09:02:54.760Z,0.50
2022-07-28T09:03:57.822Z,0.25
2022-07-28T09:05:00.749Z,0.50
2022-07-28T09:06:03.570Z,0.50
2022-07-28T09:07:06.870Z,0.00
2022-07-28T09:08:10.141Z,0.50
2022-07-28T09:09:13.418Z,1.00
2022-07-28T09:10:16.666Z,0.50
2022-07-28T09:11:20.015Z,0.50
2022-07-28T09:12:26.763Z,0.00
2022-07-28T09:13:27.482Z,0.00
2022-07-28T09:14:30.760Z,0.50
2022-07-28T09:15:33.981Z,0.00
2022-07-28T09:16:37.149Z,0.50
2022-07-28T09:17:40.125Z,0.50
2022-07-28T09:18:43.082Z,0.00
2022-07-28T09:19:45.970Z,0.50
2022-07-28T09:20:49.348Z,0.20
2022-07-28T09:21:52.728Z,0.50
2022-07-28T09:22:55.744Z,0.50
2022-07-28T09:23:58.803Z,1.00
2022-07-28T09:25:02.189Z,0.75
2022-07-28T09:26:10.230Z,1.00
2022-07-28T09:27:09.992Z,1.00
2022-07-28T09:28:13.216Z,1.00
2022-07-28T09:29:15.888Z,1.00
2022-07-28T09:30:19.291Z,0.50
2022-07-28T09:31:22.673Z,0.50
2022-07-28T09:32:25.750Z,1.00
2022-07-28T09:33:42.814Z,0.50
2022-07-28T09:34:33.169Z,1.00
2022-07-28T09:35:36.156Z,1.50
2022-07-28T09:36:39.344Z,1.50
2022-07-28T09:37:42.519Z,1.00
2022-07-28T09:38:45.662Z,1.50
2022-07-28T09:39:48.769Z,1.25
2022-07-28T09:40:51.863Z,1.50
2022-07-28T09:41:54.832Z,1.25
2022-07-28T09:42:57.802Z,1.00
2022-07-28T09:44:00.789Z,0.75
2022-07-28T09:45:21.730Z,1.00
2022-07-28T09:46:08.150Z,1.00
2022-07-28T09:47:11.472Z,0.50
2022-07-28T09:48:14.897Z,0.75
2022-07-28T09:49:18.195Z,1.00
2022-07-28T09:50:21.301Z,1.00
2022-07-28T09:51:24.492Z,0.40
2022-07-28T09:52:27.570Z,0.50
2022-07-28T09:53:30.647Z,0.75
2022-07-28T09:54:37.336Z,0.75
2022-07-28T09:55:38.141Z,0.25
2022-07-28T09:56:41.138Z,0.00
2022-07-28T09:57:46.040Z,0.00
2022-07-28T09:58:48.407Z,0.25
2022-07-28T09:59:55.582Z,0.00
2022-07-28T10:00:56.547Z,0.25
2022-07-28T10:02:01.559Z,0.50
2022-07-28T10:03:04.480Z,0.50
2022-07-28T10:04:08.072Z,0.00
2022-07-28T10:05:11.362Z,0.00
2022-07-28T10:06:14.640Z,0.00
2022-07-28T10:07:18.139Z,0.50
2022-07-28T10:08:21.418Z,0.50
2022-07-28T10:09:24.808Z,0.25
2022-07-28T10:10:27.987Z,1.00
2022-07-28T10:11:31.276Z,0.50
2022-07-28T10:12:34.551Z,0.00
2022-07-28T10:13:37.740Z,0.00
2022-07-28T10:14:41.127Z,0.00
2022-07-28T10:15:50.576Z,0.25
2022-07-28T10:16:48.823Z,0.50
2022-07-28T10:17:51.948Z,1.00
2022-07-28T10:18:55.180Z,0.25
2022-07-28T10:19:58.666Z,0.50
2022-07-28T10:21:02.054Z,0.25
2022-07-28T10:22:05.646Z,0.50
2022-07-28T10:23:08.929Z,0.50
2022-07-28T10:24:12.623Z,0.00
2022-07-28T10:25:16.420Z,0.50
2022-07-28T10:26:19.806Z,1.00
2022-07-28T10:27:23.300Z,0.25
2022-07-28T10:28:26.696Z,0.00
2022-07-28T10:29:30.068Z,0.00
2022-07-28T10:30:33.371Z,0.00
2022-07-28T10:31:36.498Z,0.00
2022-07-28T10:32:39.588Z,0.00
2022-07-28T10:33:42.897Z,0.00
2022-07-28T10:34:46.183Z,0.00
2022-07-28T10:35:55.298Z,0.00
2022-07-28T10:36:53.777Z,0.00
2022-07-28T10:37:57.170Z,0.00
2022-07-28T10:39:00.328Z,0.00
2022-07-28T10:40:07.861Z,0.60
2022-07-28T10:41:07.912Z,0.25
2022-07-28T10:42:11.120Z,0.00
2022-07-28T10:43:14.400Z,0.00
2022-07-28T10:44:18.017Z,0.00
2022-07-28T10:45:21.584Z,0.00
2022-07-28T10:46:25.185Z,0.00
2022-07-28T10:47:36.339Z,0.00
2022-07-28T10:48:33.067Z,0.00
2022-07-28T10:49:36.165Z,0.00
2022-07-28T10:50:39.744Z,0.00
2022-07-28T10:52:01.229Z,0.00
2022-07-28T10:52:49.838Z,0.00
2022-07-28T10:53:51.877Z,0.00
2022-07-28T10:54:55.035Z,0.00
2022-07-28T10:55:58.283Z,0.00
2022-07-28T10:57:04.831Z,0.00
2022-07-28T10:58:11.932Z,0.00
2022-07-28T10:59:09.978Z,0.00
2022-07-28T11:00:14.289Z,0.00
2022-07-28T11:01:32.511Z,0.00
2022-07-28T11:02:21.754Z,0.00
2022-07-28T11:03:26.339Z,0.00
2022-07-28T11:04:29.606Z,0.00
2022-07-28T11:05:32.640Z,0.50
2022-07-28T11:06:36.175Z,0.50
2022-07-28T11:07:39.322Z,0.25
2022-07-28T11:08:42.438Z,0.00
2022-07-28T11:09:46.743Z,1.00
2022-07-28T11:10:50.538Z,0.00
2022-07-28T11:11:54.030Z,0.00
2022-07-28T11:12:57.418Z,0.50
2022-07-28T11:14:01.221Z,0.25
2022-07-28T11:15:18.354Z,0.50
2022-07-28T11:16:08.973Z,0.50
2022-07-28T11:17:12.514Z,0.60
2022-07-28T11:18:17.124Z,0.50
2022-07-28T11:19:38.094Z,0.25
2022-07-28T11:20:27.504Z,0.00
2022-07-28T11:21:39.478Z,0.00
2022-07-28T11:22:35.119Z,0.50
2022-07-28T11:23:38.346Z,0.50
2022-07-28T11:24:41.540Z,0.00
2022-07-28T11:25:45.840Z,0.00
2022-07-28T11:26:50.148Z,0.00
2022-07-28T11:27:53.434Z,0.00
2022-07-28T11:28:56.681Z,0.00
2022-07-28T11:29:59.854Z,0.00
2022-07-28T11:31:03.181Z,0.00
2022-07-28T11:32:06.669Z,0.00
2022-07-28T11:33:10.059Z,0.25
2022-07-28T11:34:14.063Z,0.00
2022-07-28T11:36:36.406Z,0.00
2022-07-28T11:37:39.787Z,0.00
2022-07-28T11:38:43.382Z,0.00
2022-07-28T11:39:46.662Z,0.00
2022-07-28T11:40:49.942Z,0.00
2022-07-28T11:41:53.362Z,0.00
2022-07-28T11:42:56.721Z,0.00
2022-07-28T11:44:00.001Z,0.00
2022-07-28T11:45:03.488Z,0.00
2022-07-28T11:46:10.195Z,0.00
2022-07-28T11:47:11.306Z,0.50
2022-07-28T11:48:14.346Z,0.00
2022-07-28T11:49:17.666Z,0.00
2022-07-28T11:50:20.835Z,0.00
2022-07-28T11:51:24.021Z,0.25
2022-07-28T11:52:28.342Z,0.00
2022-07-28T11:53:31.606Z,0.00
2022-07-28T11:54:34.993Z,0.00
2022-07-28T11:55:49.339Z,0.00
2022-07-28T11:56:42.489Z,0.00
2022-07-28T11:57:47.665Z,0.00
2022-07-28T11:58:50.081Z,0.50
2022-07-28T11:59:53.478Z,0.25
2022-07-28T12:00:56.766Z,0.00
2022-07-28T12:02:01.182Z,0.00
2022-07-28T12:03:05.340Z,0.00
2022-07-28T12:04:10.336Z,0.25
2022-07-28T12:05:13.734Z,0.00
2022-07-28T12:06:17.364Z,0.00
2022-07-28T12:07:21.784Z,0.00
2022-07-28T12:08:25.065Z,0.00
2022-07-28T12:09:33.738Z,0.50
2022-07-28T12:11:36.731Z,0.00
2022-07-28T12:12:39.930Z,0.00
2022-07-28T12:13:43.122Z,0.00
2022-07-28T12:14:46.367Z,0.00
2022-07-28T12:15:49.755Z,0.00
2022-07-28T12:16:53.414Z,0.50
2022-07-28T12:17:56.869Z,1.00
2022-07-28T12:19:00.148Z,0.50
2022-07-28T12:20:03.438Z,0.75
2022-07-28T12:21:06.721Z,0.75
2022-07-28T12:22:10.316Z,0.50
2022-07-28T12:23:14.621Z,0.00
2022-07-28T12:24:18.709Z,0.00
2022-07-28T12:25:22.419Z,0.25
2022-07-28T12:26:26.370Z,0.25
2022-07-28T12:27:31.951Z,0.50
2022-07-28T12:28:33.912Z,0.25
2022-07-28T12:29:37.352Z,1.00
2022-07-28T12:30:40.480Z,0.25
2022-07-28T12:31:43.658Z,0.00
2022-07-28T12:32:46.853Z,0.50
2022-07-28T12:33:49.892Z,0.50
2022-07-28T12:34:53.130Z,1.00
2022-07-28T12:35:56.496Z,0.25
2022-07-28T12:36:59.888Z,0.50
2022-07-28T12:38:03.266Z,0.50
2022-07-28T12:39:10.844Z,0.50
2022-07-28T12:40:11.046Z,1.00
2022-07-28T12:41:14.462Z,0.50
2022-07-28T12:42:17.705Z,0.00
2022-07-28T12:43:20.809Z,0.50
2022-07-28T12:44:24.316Z,0.25
2022-07-28T12:45:27.689Z,0.00
2022-07-28T12:46:30.982Z,0.00
2022-07-28T12:47:34.151Z,0.00
2022-07-28T12:48:37.288Z,0.50
2022-07-28T12:49:40.521Z,0.00
2022-07-28T12:50:44.008Z,0.00
2022-07-28T12:51:47.290Z,0.25
2022-07-28T12:52:50.683Z,0.50
2022-07-28T12:53:54.268Z,0.60
2022-07-28T12:54:57.660Z,1.00
2022-07-28T12:56:01.144Z,0.25
2022-07-28T12:57:04.444Z,0.50
2022-07-28T12:58:07.823Z,1.00
2022-07-28T12:59:10.995Z,0.00
2022-07-28T13:00:14.165Z,1.00
2022-07-28T13:01:17.527Z,0.25
2022-07-28T13:02:20.800Z,0.50
2022-07-28T13:03:24.032Z,0.00
2022-07-28T13:04:27.220Z,0.00
2022-07-28T13:05:30.391Z,0.00
2022-07-28T13:06:33.779Z,0.25
2022-07-28T13:07:37.071Z,0.00
2022-07-28T13:08:44.646Z,0.00
2022-07-28T13:09:44.656Z,0.00
2022-07-28T13:10:47.942Z,0.00
2022-07-28T13:11:51.226Z,0.50
2022-07-28T13:12:54.507Z,0.00
2022-07-28T13:13:57.997Z,0.00
2022-07-28T13:15:01.385Z,0.50
2022-07-28T13:16:04.649Z,0.50
2022-07-28T13:17:08.968Z,0.00
2022-07-28T13:18:12.181Z,0.00
2022-07-28T13:19:15.639Z,0.00
2022-07-28T13:20:18.941Z,0.00
2022-07-28T13:21:21.987Z,0.00
2022-07-28T13:22:25.299Z,0.00
2022-07-28T13:23:28.483Z,0.00
2022-07-28T13:24:31.768Z,0.00
2022-07-28T13:25:35.054Z,0.00
2022-07-28T13:26:38.330Z,0.00
2022-07-28T13:27:42.501Z,0.00
2022-07-28T13:28:45.616Z,0.25
2022-07-28T13:29:48.932Z,0.00
2022-07-28T13:30:52.000Z,0.00
2022-07-28T13:31:55.368Z,0.50
2022-07-28T13:32:58.743Z,0.50
2022-07-28T13:34:01.931Z,0.00
2022-07-28T13:35:05.020Z,0.50
2022-07-28T13:36:08.303Z,0.25
2022-07-28T13:37:11.690Z,0.00
2022-07-28T13:38:15.488Z,0.00
2022-07-28T13:39:18.730Z,1.00
2022-07-28T13:40:22.048Z,0.50
2022-07-28T13:41:25.408Z,0.50
2022-07-28T13:42:30.163Z,1.00
2022-07-28T13:43:36.405Z,1.00
2022-07-28T13:44:37.749Z,0.50
2022-07-28T13:45:41.076Z,0.50
2022-07-28T13:46:47.095Z,1.00
2022-07-28T13:47:52.438Z,1.00
2022-07-28T13:48:57.806Z,0.50
2022-07-28T13:49:58.882Z,0.00
2022-07-28T13:51:02.291Z,0.50
2022-07-28T13:52:05.658Z,1.00
2022-07-28T13:53:10.166Z,1.00
2022-07-28T13:54:13.877Z,1.00
2022-07-28T13:55:17.732Z,1.00
2022-07-28T13:56:22.019Z,0.50
2022-07-28T13:57:25.448Z,0.00
2022-07-28T13:58:29.972Z,0.50
2022-07-28T13:59:36.201Z,1.00
2022-07-28T14:00:38.065Z,0.25
2022-07-28T14:01:41.259Z,1.00
2022-07-28T14:02:45.571Z,1.00
2022-07-28T14:03:56.159Z,1.50
2022-07-28T14:04:53.865Z,1.00
2022-07-28T14:05:57.633Z,1.50
2022-07-28T14:07:01.685Z,1.00